createdAt,value
2018-12-09T00:00:21.462Z,983.94
2018-12-09T00:01:21.445Z,983.98
2018-12-09T00:02:21.456Z,983.87
2018-12-09T00:03:21.422Z,983.85
2018-12-09T00:04:21.386Z,983.83
2018-12-09T00:05:21.368Z,983.79
2018-12-09T00:06:21.431Z,983.8
2018-12-09T00:07:21.330Z,983.73
2018-12-09T00:08:21.310Z,983.76
2018-12-09T00:09:21.297Z,983.71
2018-12-09T00:10:21.273Z,983.62
2018-12-09T00:11:21.253Z,983.65
2018-12-09T00:12:21.235Z,983.65
2018-12-09T00:13:21.292Z,983.53
2018-12-09T00:14:21.196Z,983.59
2018-12-09T00:15:21.182Z,983.48
2018-12-09T00:16:21.160Z,983.55
2018-12-09T00:17:21.138Z,983.54
2018-12-09T00:18:21.120Z,983.71
2018-12-09T00:19:21.101Z,983.65
2018-12-09T00:20:21.082Z,983.59
2018-12-09T00:21:21.061Z,983.59
2018-12-09T00:22:21.040Z,983.63
2018-12-09T00:23:21.051Z,983.67
2018-12-09T00:24:21.011Z,983.63
2018-12-09T00:25:20.997Z,983.64
2018-12-09T00:26:20.965Z,983.64
2018-12-09T00:27:20.952Z,983.66
2018-12-09T00:28:20.938Z,983.54
2018-12-09T00:29:20.920Z,983.55
2018-12-09T00:30:20.885Z,983.47
2018-12-09T00:31:20.874Z,983.48
2018-12-09T00:32:20.852Z,983.48
2018-12-09T00:33:20.835Z,983.58
2018-12-09T00:34:20.809Z,983.61
2018-12-09T00:35:20.789Z,983.58
2018-12-09T00:36:20.769Z,983.69
2018-12-09T00:37:20.858Z,983.55
2018-12-09T00:38:20.741Z,983.54
2018-12-09T00:39:20.811Z,983.68
2018-12-09T00:40:20.718Z,983.67
2018-12-09T00:41:20.696Z,983.57
2018-12-09T00:42:20.672Z,983.65
2018-12-09T00:43:20.636Z,983.63
2018-12-09T00:44:20.613Z,983.71
2018-12-09T00:45:20.593Z,983.53
2018-12-09T00:46:20.574Z,983.53
2018-12-09T00:47:20.553Z,983.71
2018-12-09T00:48:20.538Z,983.61
2018-12-09T00:49:20.517Z,983.67
2018-12-09T00:50:20.497Z,983.61
2018-12-09T00:51:20.478Z,983.92
2018-12-09T00:52:20.458Z,983.8
2018-12-09T00:53:20.438Z,983.73
2018-12-09T00:54:20.421Z,983.69
2018-12-09T00:55:20.398Z,983.82
2018-12-09T00:56:20.379Z,983.72
2018-12-09T00:57:20.361Z,983.75
2018-12-09T00:58:20.340Z,983.64
2018-12-09T00:59:20.321Z,983.66
2018-12-09T01:00:20.362Z,983.64
2018-12-09T01:01:20.281Z,983.77
2018-12-09T01:02:20.266Z,983.75
2018-12-09T01:03:20.243Z,983.79
2018-12-09T01:04:20.226Z,983.84
2018-12-09T01:05:20.224Z,983.72
2018-12-09T01:06:20.185Z,983.73
2018-12-09T01:07:20.168Z,983.74
2018-12-09T01:08:20.149Z,983.89
2018-12-09T01:09:20.124Z,983.86
2018-12-09T01:10:20.110Z,983.76
2018-12-09T01:11:20.090Z,983.83
2018-12-09T01:12:20.069Z,983.82
2018-12-09T01:13:20.052Z,983.82
2018-12-09T01:14:20.030Z,983.86
2018-12-09T01:15:20.012Z,983.84
2018-12-09T01:16:19.997Z,983.88
2018-12-09T01:17:19.968Z,983.92
2018-12-09T01:18:19.954Z,984.06
2018-12-09T01:19:19.934Z,983.95
2018-12-09T01:20:19.909Z,984.08
2018-12-09T01:21:19.891Z,984.07
2018-12-09T01:22:19.872Z,984.1
2018-12-09T01:23:19.852Z,984
2018-12-09T01:24:19.833Z,984.07
2018-12-09T01:25:19.815Z,984.17
2018-12-09T01:26:19.797Z,984.16
2018-12-09T01:27:19.776Z,984.08
2018-12-09T01:28:19.754Z,984.21
2018-12-09T01:29:19.743Z,984.16
2018-12-09T01:30:19.717Z,984.15
2018-12-09T01:31:19.696Z,984.34
2018-12-09T01:32:19.949Z,984.3
2018-12-09T01:33:19.663Z,984.2
2018-12-09T01:34:19.638Z,984.28
2018-12-09T01:35:19.618Z,984.42
2018-12-09T01:36:19.601Z,984.4
2018-12-09T01:37:19.580Z,984.29
2018-12-09T01:38:19.588Z,984.34
2018-12-09T01:39:19.537Z,984.53
2018-12-09T01:40:19.519Z,984.24
2018-12-09T01:41:19.499Z,984.35
2018-12-09T01:42:19.478Z,984.19
2018-12-09T01:43:19.458Z,984.13
2018-12-09T01:44:19.438Z,984.17
2018-12-09T01:45:19.469Z,984.24
2018-12-09T01:46:19.398Z,984.3
2018-12-09T01:47:19.380Z,984.34
2018-12-09T01:48:19.361Z,984.46
2018-12-09T01:49:19.343Z,984.47
2018-12-09T01:50:19.320Z,984.34
2018-12-09T01:51:19.301Z,984.33
2018-12-09T01:52:19.281Z,984.35
2018-12-09T01:53:19.261Z,984.32
2018-12-09T01:54:19.240Z,984.45
2018-12-09T01:55:19.272Z,984.4
2018-12-09T01:56:19.202Z,984.38
2018-12-09T01:57:19.179Z,984.39
2018-12-09T01:58:19.161Z,984.4
2018-12-09T01:59:19.144Z,984.35
2018-12-09T02:00:19.174Z,984.41
2018-12-09T02:01:19.111Z,984.48
2018-12-09T02:02:19.081Z,984.44
2018-12-09T02:03:19.061Z,984.37
2018-12-09T02:04:19.041Z,984.53
2018-12-09T02:05:19.066Z,984.36
2018-12-09T02:06:19.007Z,984.34
2018-12-09T02:07:18.980Z,984.36
2018-12-09T02:08:18.966Z,984.39
2018-12-09T02:09:18.942Z,984.26
2018-12-09T02:10:18.922Z,984.36
2018-12-09T02:11:18.916Z,984.37
2018-12-09T02:12:18.885Z,984.37
2018-12-09T02:13:18.865Z,984.31
2018-12-09T02:14:18.843Z,984.55
2018-12-09T02:15:18.825Z,984.41
2018-12-09T02:16:18.804Z,984.41
2018-12-09T02:17:18.783Z,984.66
2018-12-09T02:18:18.762Z,984.4
2018-12-09T02:19:18.743Z,984.39
2018-12-09T02:20:18.722Z,984.29
2018-12-09T02:21:18.703Z,984.29
2018-12-09T02:22:18.687Z,984.39
2018-12-09T02:23:18.663Z,984.43
2018-12-09T02:24:18.643Z,984.39
2018-12-09T02:25:18.626Z,984.47
2018-12-09T02:26:18.604Z,984.45
2018-12-09T02:27:18.585Z,984.56
2018-12-09T02:28:18.563Z,984.54
2018-12-09T02:29:18.545Z,984.58
2018-12-09T02:30:18.525Z,984.47
2018-12-09T02:31:18.505Z,984.47
2018-12-09T02:32:18.488Z,984.48
2018-12-09T02:33:18.463Z,984.56
2018-12-09T02:34:18.443Z,984.59
2018-12-09T02:35:18.426Z,984.59
2018-12-09T02:36:18.405Z,984.71
2018-12-09T02:37:18.386Z,984.67
2018-12-09T02:38:18.369Z,984.78
2018-12-09T02:39:18.344Z,984.43
2018-12-09T02:40:18.325Z,984.33
2018-12-09T02:41:18.306Z,984.65
2018-12-09T02:42:18.287Z,984.59
2018-12-09T02:43:18.266Z,984.64
2018-12-09T02:44:18.252Z,984.6
2018-12-09T02:45:18.225Z,984.63
2018-12-09T02:46:18.204Z,984.77
2018-12-09T02:47:18.190Z,984.62
2018-12-09T02:48:18.170Z,984.61
2018-12-09T02:49:18.146Z,984.6
2018-12-09T02:50:18.125Z,984.59
2018-12-09T02:51:18.108Z,984.69
2018-12-09T02:52:18.085Z,984.44
2018-12-09T02:53:18.065Z,984.44
2018-12-09T02:54:18.045Z,984.43
2018-12-09T02:55:18.030Z,984.41
2018-12-09T02:56:18.005Z,984.41
2018-12-09T02:57:17.985Z,984.41
2018-12-09T02:58:17.966Z,984.51
2018-12-09T02:59:17.945Z,984.43
2018-12-09T03:00:17.927Z,984.48
2018-12-09T03:01:17.907Z,984.5
2018-12-09T03:02:17.889Z,984.46
2018-12-09T03:03:17.872Z,984.39
2018-12-09T03:04:17.848Z,984.36
2018-12-09T03:05:17.828Z,984.43
2018-12-09T03:06:17.807Z,984.41
2018-12-09T03:07:17.787Z,984.55
2018-12-09T03:08:17.769Z,984.44
2018-12-09T03:09:17.746Z,984.47
2018-12-09T03:10:17.725Z,984.43
2018-12-09T03:11:17.707Z,984.38
2018-12-09T03:12:17.688Z,984.35
2018-12-09T03:13:17.670Z,984.39
2018-12-09T03:14:17.646Z,984.38
2018-12-09T03:15:17.627Z,984.48
2018-12-09T03:16:17.608Z,984.48
2018-12-09T03:17:17.594Z,984.5
2018-12-09T03:18:17.567Z,984.54
2018-12-09T03:19:17.549Z,984.45
2018-12-09T03:20:17.573Z,984.42
2018-12-09T03:21:17.507Z,984.52
2018-12-09T03:22:17.488Z,984.51
2018-12-09T03:23:17.471Z,984.64
2018-12-09T03:24:17.448Z,984.54
2018-12-09T03:25:17.429Z,984.62
2018-12-09T03:26:17.408Z,984.6
2018-12-09T03:27:17.392Z,984.59
2018-12-09T03:28:17.368Z,984.55
2018-12-09T03:29:17.349Z,984.56
2018-12-09T03:30:17.332Z,984.5
2018-12-09T03:31:17.322Z,984.48
2018-12-09T03:32:17.496Z,984.56
2018-12-09T03:33:17.271Z,984.64
2018-12-09T03:34:17.255Z,984.57
2018-12-09T03:35:17.230Z,984.51
2018-12-09T03:36:17.214Z,984.48
2018-12-09T03:37:17.206Z,984.45
2018-12-09T03:38:17.172Z,984.45
2018-12-09T03:39:17.156Z,984.45
2018-12-09T03:40:17.134Z,984.48
2018-12-09T03:41:17.113Z,984.46
2018-12-09T03:42:17.092Z,984.61
2018-12-09T03:43:17.077Z,984.45
2018-12-09T03:44:17.053Z,984.56
2018-12-09T03:45:17.033Z,984.51
2018-12-09T03:46:17.014Z,984.56
2018-12-09T03:47:16.999Z,984.67
2018-12-09T03:48:16.975Z,984.57
2018-12-09T03:49:16.959Z,984.47
2018-12-09T03:50:16.987Z,984.57
2018-12-09T03:51:16.916Z,984.61
2018-12-09T03:52:16.897Z,984.57
2018-12-09T03:53:16.879Z,984.58
2018-12-09T03:54:16.859Z,984.57
2018-12-09T03:55:16.841Z,984.67
2018-12-09T03:56:16.820Z,984.56
2018-12-09T03:57:16.797Z,984.66
2018-12-09T03:58:16.779Z,984.66
2018-12-09T03:59:16.762Z,984.58
2018-12-09T04:00:16.744Z,984.62
2018-12-09T04:01:16.721Z,984.64
2018-12-09T04:02:16.705Z,984.66
2018-12-09T04:03:16.686Z,984.65
2018-12-09T04:04:16.661Z,984.71
2018-12-09T04:05:16.648Z,984.65
2018-12-09T04:06:16.626Z,984.67
2018-12-09T04:07:16.614Z,984.72
2018-12-09T04:08:16.589Z,984.76
2018-12-09T04:09:16.565Z,984.72
2018-12-09T04:10:16.547Z,984.78
2018-12-09T04:11:16.526Z,984.79
2018-12-09T04:12:16.508Z,984.78
2018-12-09T04:13:16.492Z,984.72
2018-12-09T04:14:16.470Z,984.82
2018-12-09T04:15:16.448Z,984.72
2018-12-09T04:16:16.443Z,984.71
2018-12-09T04:17:16.430Z,984.77
2018-12-09T04:18:16.393Z,984.77
2018-12-09T04:19:16.371Z,984.78
2018-12-09T04:20:16.353Z,984.9
2018-12-09T04:21:16.335Z,984.84
2018-12-09T04:22:16.316Z,984.76
2018-12-09T04:23:16.295Z,984.77
2018-12-09T04:24:16.278Z,984.87
2018-12-09T04:25:16.258Z,984.77
2018-12-09T04:26:16.236Z,984.77
2018-12-09T04:27:16.217Z,984.86
2018-12-09T04:28:16.199Z,984.98
2018-12-09T04:29:16.179Z,984.76
2018-12-09T04:30:16.160Z,984.8
2018-12-09T04:31:16.140Z,984.88
2018-12-09T04:32:16.124Z,984.88
2018-12-09T04:33:16.102Z,984.84
2018-12-09T04:34:16.092Z,984.86
2018-12-09T04:35:16.067Z,984.89
2018-12-09T04:36:16.045Z,984.77
2018-12-09T04:37:16.025Z,984.88
2018-12-09T04:38:16.006Z,984.86
2018-12-09T04:39:15.986Z,984.94
2018-12-09T04:40:15.968Z,984.88
2018-12-09T04:41:15.952Z,984.98
2018-12-09T04:42:15.940Z,985
2018-12-09T04:43:15.964Z,985
2018-12-09T04:44:15.890Z,985
2018-12-09T04:45:15.871Z,984.98
2018-12-09T04:46:15.856Z,984.95
2018-12-09T04:47:15.832Z,985.06
2018-12-09T04:48:15.813Z,985.06
2018-12-09T04:49:15.799Z,985.17
2018-12-09T04:50:15.779Z,985.05
2018-12-09T04:51:15.756Z,985
2018-12-09T04:52:15.736Z,985.11
2018-12-09T04:53:15.718Z,985.07
2018-12-09T04:54:15.697Z,985.11
2018-12-09T04:55:15.677Z,985.18
2018-12-09T04:56:15.658Z,985.09
2018-12-09T04:57:15.640Z,985.17
2018-12-09T04:58:15.644Z,985.12
2018-12-09T04:59:15.600Z,985.21
2018-12-09T05:00:15.584Z,985.17
2018-12-09T05:01:15.561Z,985.18
2018-12-09T05:02:15.542Z,985.28
2018-12-09T05:03:15.522Z,985.25
2018-12-09T05:04:15.505Z,985.24
2018-12-09T05:05:15.483Z,985.24
2018-12-09T05:06:15.581Z,985.26
2018-12-09T05:07:15.448Z,985.34
2018-12-09T05:08:15.427Z,985.26
2018-12-09T05:09:15.408Z,985.22
2018-12-09T05:10:15.387Z,985.18
2018-12-09T05:11:15.365Z,985.18
2018-12-09T05:12:15.347Z,985.16
2018-12-09T05:13:15.327Z,985.17
2018-12-09T05:14:15.310Z,985.2
2018-12-09T05:15:15.287Z,985.17
2018-12-09T05:16:15.269Z,985.15
2018-12-09T05:17:15.251Z,985.19
2018-12-09T05:18:15.233Z,985.16
2018-12-09T05:19:15.211Z,985.23
2018-12-09T05:20:15.193Z,985.26
2018-12-09T05:21:15.173Z,985.24
2018-12-09T05:22:15.154Z,985.29
2018-12-09T05:23:15.131Z,985.25
2018-12-09T05:24:15.113Z,985.34
2018-12-09T05:25:15.092Z,985.33
2018-12-09T05:26:15.072Z,985.36
2018-12-09T05:27:15.055Z,985.24
2018-12-09T05:28:15.044Z,985.35
2018-12-09T05:29:15.017Z,985.39
2018-12-09T05:30:14.995Z,985.37
2018-12-09T05:31:14.979Z,985.36
2018-12-09T05:32:15.159Z,985.42
2018-12-09T05:33:14.953Z,985.39
2018-12-09T05:34:14.919Z,985.35
2018-12-09T05:35:14.899Z,985.35
2018-12-09T05:36:14.877Z,985.4
2018-12-09T05:37:14.863Z,985.37
2018-12-09T05:38:14.839Z,985.45
2018-12-09T05:39:14.819Z,985.43
2018-12-09T05:40:14.804Z,985.39
2018-12-09T05:41:14.781Z,985.32
2018-12-09T05:42:14.761Z,985.49
2018-12-09T05:43:14.743Z,985.55
2018-12-09T05:44:14.721Z,985.49
2018-12-09T05:45:14.701Z,985.56
2018-12-09T05:46:14.789Z,985.5
2018-12-09T05:47:14.663Z,985.49
2018-12-09T05:48:14.643Z,985.55
2018-12-09T05:49:14.625Z,985.61
2018-12-09T05:50:14.603Z,985.6
2018-12-09T05:51:14.585Z,985.69
2018-12-09T05:52:14.565Z,985.58
2018-12-09T05:53:14.550Z,985.72
2018-12-09T05:54:14.525Z,985.63
2018-12-09T05:55:14.566Z,985.65
2018-12-09T05:56:14.486Z,985.65
2018-12-09T05:57:14.467Z,985.69
2018-12-09T05:58:14.451Z,985.65
2018-12-09T05:59:14.429Z,985.65
2018-12-09T06:00:14.411Z,985.81
2018-12-09T06:01:14.389Z,985.71
2018-12-09T06:02:14.371Z,985.69
2018-12-09T06:03:14.349Z,985.6
2018-12-09T06:04:14.331Z,985.69
2018-12-09T06:05:14.311Z,985.66
2018-12-09T06:06:14.292Z,985.68
2018-12-09T06:07:14.271Z,985.75
2018-12-09T06:08:14.254Z,985.72
2018-12-09T06:09:14.233Z,985.7
2018-12-09T06:10:14.215Z,985.67
2018-12-09T06:11:14.197Z,985.78
2018-12-09T06:12:14.178Z,985.72
2018-12-09T06:13:14.155Z,985.73
2018-12-09T06:14:14.136Z,985.77
2018-12-09T06:15:14.120Z,985.84
2018-12-09T06:16:14.099Z,985.78
2018-12-09T06:17:14.077Z,985.8
2018-12-09T06:18:14.063Z,985.71
2018-12-09T06:19:14.038Z,985.88
2018-12-09T06:20:14.019Z,985.84
2018-12-09T06:21:14.000Z,985.85
2018-12-09T06:22:13.981Z,985.88
2018-12-09T06:23:13.961Z,985.77
2018-12-09T06:24:13.944Z,985.86
2018-12-09T06:25:13.923Z,985.77
2018-12-09T06:26:13.903Z,985.81
2018-12-09T06:27:13.884Z,985.77
2018-12-09T06:28:13.864Z,985.84
2018-12-09T06:29:13.844Z,985.86
2018-12-09T06:30:13.829Z,985.89
2018-12-09T06:31:13.806Z,985.81
2018-12-09T06:32:13.786Z,985.86
2018-12-09T06:33:13.769Z,985.87
2018-12-09T06:34:13.748Z,985.94
2018-12-09T06:35:13.728Z,985.88
2018-12-09T06:36:13.716Z,985.99
2018-12-09T06:37:13.690Z,985.86
2018-12-09T06:38:13.671Z,985.87
2018-12-09T06:39:13.657Z,985.87
2018-12-09T06:40:13.632Z,985.89
2018-12-09T06:41:13.610Z,985.92
2018-12-09T06:42:13.594Z,985.88
2018-12-09T06:43:13.573Z,986.08
2018-12-09T06:44:13.556Z,985.96
2018-12-09T06:45:13.535Z,985.96
2018-12-09T06:46:13.517Z,985.93
2018-12-09T06:47:13.497Z,985.92
2018-12-09T06:48:13.494Z,986.02
2018-12-09T06:49:13.497Z,986.01
2018-12-09T06:50:13.440Z,985.95
2018-12-09T06:51:13.421Z,985.89
2018-12-09T06:52:13.398Z,985.96
2018-12-09T06:53:13.382Z,986.04
2018-12-09T06:54:13.362Z,985.97
2018-12-09T06:55:13.341Z,986.1
2018-12-09T06:56:13.320Z,986.08
2018-12-09T06:57:13.303Z,986.07
2018-12-09T06:58:13.298Z,986.02
2018-12-09T06:59:13.298Z,986.04
2018-12-09T07:00:13.245Z,985.99
2018-12-09T07:01:13.221Z,986.02
2018-12-09T07:02:13.207Z,986.11
2018-12-09T07:03:13.182Z,986.11
2018-12-09T07:04:13.164Z,986.12
2018-12-09T07:05:13.143Z,986.11
2018-12-09T07:06:13.127Z,986.16
2018-12-09T07:07:13.108Z,986.15
2018-12-09T07:08:13.086Z,986.16
2018-12-09T07:09:13.068Z,986.13
2018-12-09T07:10:13.050Z,986.08
2018-12-09T07:11:13.029Z,986.2
2018-12-09T07:12:13.006Z,986.2
2018-12-09T07:13:12.990Z,986.15
2018-12-09T07:14:12.970Z,986.17
2018-12-09T07:15:12.948Z,986.16
2018-12-09T07:16:12.930Z,986.2
2018-12-09T07:17:12.909Z,986.25
2018-12-09T07:18:12.890Z,986.31
2018-12-09T07:19:12.870Z,986.27
2018-12-09T07:20:12.870Z,986.33
2018-12-09T07:21:12.836Z,986.25
2018-12-09T07:22:12.809Z,986.45
2018-12-09T07:23:12.792Z,986.47
2018-12-09T07:24:12.772Z,986.43
2018-12-09T07:25:12.751Z,986.51
2018-12-09T07:26:12.731Z,986.38
2018-12-09T07:27:12.712Z,986.55
2018-12-09T07:28:12.694Z,986.5
2018-12-09T07:29:12.673Z,986.52
2018-12-09T07:30:12.655Z,986.63
2018-12-09T07:31:12.635Z,986.49
2018-12-09T07:32:12.617Z,986.54
2018-12-09T07:33:12.596Z,986.66
2018-12-09T07:34:12.576Z,986.51
2018-12-09T07:35:12.708Z,986.69
2018-12-09T07:36:12.535Z,986.62
2018-12-09T07:37:12.517Z,986.61
2018-12-09T07:38:12.500Z,986.67
2018-12-09T07:39:12.479Z,986.75
2018-12-09T07:40:12.457Z,986.63
2018-12-09T07:41:12.441Z,986.77
2018-12-09T07:42:12.420Z,986.75
2018-12-09T07:43:12.400Z,987.01
2018-12-09T07:44:12.380Z,986.84
2018-12-09T07:45:12.362Z,986.84
2018-12-09T07:46:12.341Z,986.83
2018-12-09T07:47:12.320Z,986.89
2018-12-09T07:48:12.303Z,986.77
2018-12-09T07:49:12.287Z,986.95
2018-12-09T07:50:12.263Z,986.98
2018-12-09T07:51:12.243Z,986.89
2018-12-09T07:52:12.224Z,986.93
2018-12-09T07:53:12.208Z,986.84
2018-12-09T07:54:12.189Z,986.84
2018-12-09T07:55:12.166Z,987
2018-12-09T07:56:12.146Z,987.04
2018-12-09T07:57:12.125Z,987.04
2018-12-09T07:58:12.105Z,987.04
2018-12-09T07:59:12.090Z,987.16
2018-12-09T08:00:12.069Z,987.21
2018-12-09T08:01:12.050Z,987.28
2018-12-09T08:02:12.030Z,987.24
2018-12-09T08:03:12.024Z,987.28
2018-12-09T08:04:11.990Z,987.21
2018-12-09T08:05:11.972Z,987.28
2018-12-09T08:06:11.949Z,987.38
2018-12-09T08:07:11.934Z,987.24
2018-12-09T08:08:11.911Z,987.27
2018-12-09T08:09:11.893Z,987.27
2018-12-09T08:10:11.872Z,987.27
2018-12-09T08:11:11.851Z,987.26
2018-12-09T08:12:11.838Z,987.27
2018-12-09T08:13:11.814Z,987.26
2018-12-09T08:14:11.794Z,987.34
2018-12-09T08:15:11.773Z,987.24
2018-12-09T08:16:11.754Z,987.31
2018-12-09T08:17:11.735Z,987.33
2018-12-09T08:18:11.714Z,987.22
2018-12-09T08:19:11.703Z,987.3
2018-12-09T08:20:11.676Z,987.46
2018-12-09T08:21:11.659Z,987.33
2018-12-09T08:22:11.636Z,987.46
2018-12-09T08:23:11.618Z,987.51
2018-12-09T08:24:11.597Z,987.56
2018-12-09T08:25:11.578Z,987.71
2018-12-09T08:26:11.558Z,987.81
2018-12-09T08:27:11.544Z,987.88
2018-12-09T08:28:11.519Z,987.94
2018-12-09T08:29:11.505Z,988.01
2018-12-09T08:30:11.480Z,988.07
2018-12-09T08:31:11.511Z,987.99
2018-12-09T08:32:11.449Z,988.03
2018-12-09T08:33:11.430Z,988.05
2018-12-09T08:34:11.431Z,988.2
2018-12-09T08:35:11.388Z,988.29
2018-12-09T08:36:11.363Z,988.46
2018-12-09T08:37:11.385Z,988.49
2018-12-09T08:38:11.324Z,988.65
2018-12-09T08:39:11.321Z,988.65
2018-12-09T08:40:11.285Z,988.65
2018-12-09T08:41:11.267Z,988.68
2018-12-09T08:42:11.244Z,988.59
2018-12-09T08:43:11.228Z,988.71
2018-12-09T08:44:11.213Z,988.57
2018-12-09T08:45:11.192Z,988.65
2018-12-09T08:46:11.173Z,988.62
2018-12-09T08:47:11.149Z,988.65
2018-12-09T08:48:11.130Z,988.59
2018-12-09T08:49:11.108Z,988.67
2018-12-09T08:50:11.090Z,988.57
2018-12-09T08:51:11.069Z,988.55
2018-12-09T08:52:11.050Z,988.53
2018-12-09T08:53:11.033Z,988.52
2018-12-09T08:54:11.010Z,988.63
2018-12-09T08:55:11.005Z,988.71
2018-12-09T08:56:10.974Z,988.72
2018-12-09T08:57:10.959Z,988.83
2018-12-09T08:58:10.936Z,988.81
2018-12-09T08:59:10.920Z,988.87
2018-12-09T09:00:10.893Z,988.82
2018-12-09T09:01:10.874Z,988.89
2018-12-09T09:02:10.856Z,988.87
2018-12-09T09:03:10.831Z,988.77
2018-12-09T09:04:10.813Z,988.76
2018-12-09T09:05:10.793Z,988.83
2018-12-09T09:06:10.772Z,988.81
2018-12-09T09:07:10.759Z,988.76
2018-12-09T09:08:10.734Z,988.81
2018-12-09T09:09:10.714Z,988.85
2018-12-09T09:10:10.733Z,988.81
2018-12-09T09:11:10.674Z,988.85
2018-12-09T09:12:10.657Z,988.88
2018-12-09T09:13:10.634Z,988.85
2018-12-09T09:14:10.619Z,988.82
2018-12-09T09:15:10.593Z,988.86
2018-12-09T09:16:10.573Z,988.87
2018-12-09T09:17:10.560Z,988.78
2018-12-09T09:18:10.543Z,988.83
2018-12-09T09:19:10.515Z,988.87
2018-12-09T09:20:10.501Z,988.78
2018-12-09T09:21:10.478Z,988.85
2018-12-09T09:22:10.455Z,988.81
2018-12-09T09:23:10.438Z,988.9
2018-12-09T09:24:10.416Z,988.86
2018-12-09T09:25:10.396Z,988.92
2018-12-09T09:26:10.377Z,989.02
2018-12-09T09:27:10.362Z,989.03
2018-12-09T09:28:10.338Z,989.06
2018-12-09T09:29:10.315Z,989.09
2018-12-09T09:30:10.296Z,989.11
2018-12-09T09:31:10.276Z,989.1
2018-12-09T09:32:10.254Z,989.12
2018-12-09T09:33:10.235Z,989.11
2018-12-09T09:34:10.214Z,989.1
2018-12-09T09:35:10.197Z,989.09
2018-12-09T09:36:10.178Z,989.12
2018-12-09T09:37:10.154Z,989.16
2018-12-09T09:38:10.140Z,989.19
2018-12-09T09:39:10.115Z,989.17
2018-12-09T09:40:10.096Z,989.13
2018-12-09T09:41:10.077Z,989.17
2018-12-09T09:42:10.055Z,989.17
2018-12-09T09:43:10.033Z,989.22
2018-12-09T09:44:10.108Z,989.25
2018-12-09T09:45:09.994Z,989.26
2018-12-09T09:46:09.976Z,989.3
2018-12-09T09:47:09.955Z,989.28
2018-12-09T09:48:09.939Z,989.31
2018-12-09T09:49:09.914Z,989.38
2018-12-09T09:50:09.894Z,989.28
2018-12-09T09:51:09.874Z,989.26
2018-12-09T09:52:09.853Z,989.31
2018-12-09T09:53:09.834Z,989.29
2018-12-09T09:54:09.812Z,989.28
2018-12-09T09:55:09.792Z,989.34
2018-12-09T09:56:09.772Z,989.35
2018-12-09T09:57:09.755Z,989.35
2018-12-09T09:58:09.733Z,989.41
2018-12-09T09:59:09.750Z,989.42
2018-12-09T10:00:09.697Z,989.47
2018-12-09T10:01:09.674Z,989.54
2018-12-09T10:02:09.659Z,989.5
2018-12-09T10:03:09.637Z,989.52
2018-12-09T10:04:09.615Z,989.55
2018-12-09T10:05:09.592Z,989.56
2018-12-09T10:06:09.573Z,989.52
2018-12-09T10:07:09.553Z,989.55
2018-12-09T10:08:09.533Z,989.57
2018-12-09T10:09:09.513Z,989.64
2018-12-09T10:10:09.492Z,989.65
2018-12-09T10:11:09.473Z,989.59
2018-12-09T10:12:09.462Z,989.59
2018-12-09T10:13:09.434Z,989.66
2018-12-09T10:14:09.410Z,989.65
2018-12-09T10:15:09.402Z,989.71
2018-12-09T10:16:09.373Z,989.73
2018-12-09T10:17:09.349Z,989.77
2018-12-09T10:18:09.332Z,989.75
2018-12-09T10:19:09.321Z,989.76
2018-12-09T10:20:09.295Z,989.72
2018-12-09T10:21:09.287Z,989.79
2018-12-09T10:22:09.251Z,989.73
2018-12-09T10:23:09.231Z,989.73
2018-12-09T10:24:09.212Z,989.7
2018-12-09T10:25:09.189Z,989.65
2018-12-09T10:26:09.168Z,989.63
2018-12-09T10:27:09.201Z,989.56
2018-12-09T10:28:09.134Z,989.6
2018-12-09T10:29:09.109Z,989.53
2018-12-09T10:30:09.090Z,989.54
2018-12-09T10:31:09.070Z,989.52
2018-12-09T10:32:09.051Z,989.56
2018-12-09T10:33:09.033Z,989.51
2018-12-09T10:34:09.009Z,989.48
2018-12-09T10:35:08.989Z,989.44
2018-12-09T10:36:08.969Z,989.53
2018-12-09T10:37:08.949Z,989.47
2018-12-09T10:38:08.929Z,989.47
2018-12-09T10:39:08.913Z,989.43
2018-12-09T10:40:08.886Z,989.45
2018-12-09T10:41:08.870Z,989.41
2018-12-09T10:42:08.849Z,989.46
2018-12-09T10:43:08.827Z,989.44
2018-12-09T10:44:08.806Z,989.52
2018-12-09T10:45:08.787Z,989.53
2018-12-09T10:46:08.766Z,989.57
2018-12-09T10:47:08.747Z,989.62
2018-12-09T10:48:08.727Z,989.59
2018-12-09T10:49:08.708Z,989.59
2018-12-09T10:50:08.689Z,989.65
2018-12-09T10:51:08.668Z,989.7
2018-12-09T10:52:08.648Z,989.7
2018-12-09T10:53:08.632Z,989.77
2018-12-09T10:54:08.607Z,989.71
2018-12-09T10:55:08.589Z,989.81
2018-12-09T10:56:08.573Z,989.71
2018-12-09T10:57:08.548Z,989.73
2018-12-09T10:58:08.530Z,989.76
2018-12-09T10:59:08.509Z,989.67
2018-12-09T11:00:08.493Z,989.75
2018-12-09T11:01:08.469Z,989.74
2018-12-09T11:02:08.451Z,989.72
2018-12-09T11:03:08.431Z,989.72
2018-12-09T11:04:08.414Z,989.7
2018-12-09T11:05:08.470Z,989.75
2018-12-09T11:06:08.371Z,989.76
2018-12-09T11:07:08.351Z,989.78
2018-12-09T11:08:08.332Z,989.79
2018-12-09T11:09:08.311Z,989.8
2018-12-09T11:10:08.291Z,989.8
2018-12-09T11:11:08.271Z,989.84
2018-12-09T11:12:08.252Z,989.82
2018-12-09T11:13:08.235Z,989.83
2018-12-09T11:14:08.213Z,989.79
2018-12-09T11:15:08.192Z,989.86
2018-12-09T11:16:08.171Z,989.88
2018-12-09T11:17:08.156Z,989.9
2018-12-09T11:18:08.134Z,989.94
2018-12-09T11:19:08.116Z,989.91
2018-12-09T11:20:08.093Z,989.92
2018-12-09T11:21:08.075Z,989.92
2018-12-09T11:22:08.055Z,989.92
2018-12-09T11:23:08.033Z,989.92
2018-12-09T11:24:08.018Z,989.94
2018-12-09T11:25:07.995Z,989.99
2018-12-09T11:26:07.975Z,989.98
2018-12-09T11:27:07.963Z,990.02
2018-12-09T11:28:08.147Z,990.02
2018-12-09T11:29:07.918Z,990.08
2018-12-09T11:30:07.897Z,990.08
2018-12-09T11:31:07.878Z,990.04
2018-12-09T11:32:07.861Z,990.08
2018-12-09T11:33:08.044Z,990.13
2018-12-09T11:34:07.818Z,990.1
2018-12-09T11:35:07.798Z,990.19
2018-12-09T11:36:07.785Z,990.12
2018-12-09T11:37:07.764Z,990.16
2018-12-09T11:38:07.794Z,990.16
2018-12-09T11:39:09.297Z,990.22
2018-12-09T11:40:07.703Z,990.2
2018-12-09T11:41:07.682Z,990.25
2018-12-09T11:42:07.664Z,990.24
2018-12-09T11:43:07.645Z,990.29
2018-12-09T11:44:07.625Z,990.32
2018-12-09T11:45:07.606Z,990.28
2018-12-09T11:46:07.588Z,990.32
2018-12-09T11:47:07.569Z,990.36
2018-12-09T11:48:07.600Z,990.34
2018-12-09T11:49:07.530Z,990.32
2018-12-09T11:50:07.512Z,990.43
2018-12-09T11:51:07.496Z,990.34
2018-12-09T11:52:07.484Z,990.39
2018-12-09T11:53:07.456Z,990.43
2018-12-09T11:54:07.435Z,990.38
2018-12-09T11:55:07.442Z,990.33
2018-12-09T11:56:07.393Z,990.37
2018-12-09T11:57:07.378Z,990.38
2018-12-09T11:58:07.406Z,990.34
2018-12-09T11:59:07.339Z,990.34
2018-12-09T12:00:07.319Z,990.33
2018-12-09T12:01:07.299Z,990.3
2018-12-09T12:02:07.280Z,990.35
2018-12-09T12:03:07.261Z,990.39
2018-12-09T12:04:07.243Z,990.36
2018-12-09T12:05:07.225Z,990.43
2018-12-09T12:06:07.210Z,990.46
2018-12-09T12:07:07.209Z,990.48
2018-12-09T12:08:07.176Z,990.54
2018-12-09T12:09:07.153Z,990.56
2018-12-09T12:10:07.129Z,990.53
2018-12-09T12:11:07.109Z,990.59
2018-12-09T12:12:07.092Z,990.54
2018-12-09T12:13:07.075Z,990.56
2018-12-09T12:14:07.054Z,990.59
2018-12-09T12:15:07.037Z,990.58
2018-12-09T12:16:07.018Z,990.6
2018-12-09T12:17:06.997Z,990.64
2018-12-09T12:18:06.977Z,990.62
2018-12-09T12:19:06.963Z,990.61
2018-12-09T12:20:06.941Z,990.57
2018-12-09T12:21:06.922Z,990.63
2018-12-09T12:22:06.904Z,990.58
2018-12-09T12:23:06.884Z,990.66
2018-12-09T12:24:06.873Z,990.67
2018-12-09T12:25:06.846Z,990.7
2018-12-09T12:26:06.831Z,990.63
2018-12-09T12:27:06.813Z,990.63
2018-12-09T12:28:06.796Z,990.71
2018-12-09T12:29:06.778Z,990.75
2018-12-09T12:30:06.759Z,990.66